Time;durP1;ratioP1;P1;durP2;ratioP2;P2;SDS_P1;SDS_P2;PMS_P1;PMS_P2;Temp;Humidity;BMP_temperature;BMP_pressure;BME280_temperature;BME280_humidity;BME280_pressure;Samples;Min_cycle;Max_cycle;Signal;HPM_P1;HPM_P2
2022/03/23 00:00:46;;;;;;;35.85;23.35;;;9.10;97.90;;;;;;5032147;28;20049;-87
2022/03/23 00:03:11;;;;;;;33.63;24.55;;;9.10;97.90;;;;;;5032665;28;20103;-87
2022/03/23 00:05:41;;;;;;;34.95;27.00;;;9.10;98.10;;;;;;5033578;28;20548;-87
2022/03/23 00:08:08;;;;;;;35.25;25.33;;;9.10;98.30;;;;;;5031567;28;20380;-87
2022/03/23 00:10:34;;;;;;;33.28;23.77;;;9.10;98.40;;;;;;5031963;28;20037;-87
2022/03/23 00:13:00;;;;;;;38.13;24.98;;;9.10;98.40;;;;;;5032217;28;20513;-87
2022/03/23 00:15:27;;;;;;;39.28;27.02;;;9.00;98.30;;;;;;5032203;28;20083;-87
2022/03/23 00:17:53;;;;;;;41.63;28.58;;;9.00;98.50;;;;;;5032121;28;20046;-87
2022/03/23 00:20:19;;;;;;;40.30;29.10;;;9.00;98.80;;;;;;5014866;28;20049;-87
2022/03/23 00:22:44;;;;;;;36.10;25.75;;;9.00;98.90;;;;;;5036157;28;20061;-87
2022/03/23 00:25:10;;;;;;;36.00;25.25;;;9.00;98.60;;;;;;5048571;28;20041;-87
2022/03/23 00:27:36;;;;;;;33.53;25.27;;;9.00;98.40;;;;;;5038638;28;20156;-87
2022/03/23 00:30:02;;;;;;;39.33;26.10;;;8.90;98.40;;;;;;5032514;28;20041;-87
2022/03/23 00:32:28;;;;;;;38.53;26.27;;;8.90;98.30;;;;;;5032227;28;20051;-87
2022/03/23 00:34:53;;;;;;;36.20;27.15;;;8.80;98.60;;;;;;5015234;28;20041;-87
2022/03/23 00:37:19;;;;;;;40.45;25.88;;;8.80;98.40;;;;;;5031796;28;20041;-87
2022/03/23 00:39:45;;;;;;;36.80;25.38;;;8.70;98.30;;;;;;5031548;28;20128;-87
2022/03/23 00:42:10;;;;;;;32.42;24.13;;;8.70;98.40;;;;;;5031447;28;20530;-87
2022/03/23 00:44:36;;;;;;;36.45;26.88;;;8.60;98.30;;;;;;5015399;28;20048;-88
2022/03/23 00:47:02;;;;;;;35.53;24.80;;;8.60;98.30;;;;;;5031516;28;20514;-88
2022/03/23 00:49:28;;;;;;;36.33;23.15;;;8.50;98.40;;;;;;5030888;28;20457;-88
2022/03/23 00:51:53;;;;;;;34.58;24.08;;;8.50;98.40;;;;;;5014764;28;20041;-88
2022/03/23 00:54:20;;;;;;;32.53;22.60;;;8.40;98.50;;;;;;5031647;28;20041;-88
2022/03/23 00:56:46;;;;;;;33.38;23.70;;;8.40;98.70;;;;;;5031345;28;20037;-88
2022/03/23 00:59:13;;;;;;;34.80;24.02;;;8.30;98.80;;;;;;5031249;28;20052;-87
2022/03/23 01:01:39;;;;;;;31.65;24.10;;;8.30;99.00;;;;;;5031131;28;20045;-88
2022/03/23 01:04:05;;;;;;;34.72;24.95;;;8.30;99.10;;;;;;5031088;28;20034;-87
2022/03/23 01:06:31;;;;;;;33.58;23.88;;;8.20;99.10;;;;;;5031410;28;20076;-87
2022/03/23 01:08:57;;;;;;;34.25;23.80;;;8.20;99.20;;;;;;5031162;28;20080;-88
2022/03/23 01:11:23;;;;;;;36.17;25.15;;;8.20;99.30;;;;;;5014158;28;20077;-88
2022/03/23 01:13:49;;;;;;;31.02;22.48;;;8.10;99.50;;;;;;5031139;28;20048;-88
2022/03/23 01:16:16;;;;;;;33.97;24.08;;;8.10;99.60;;;;;;5031275;28;20037;-87
2022/03/23 01:18:42;;;;;;;31.10;22.40;;;8.10;99.60;;;;;;5030895;28;20050;-87
2022/03/23 01:21:08;;;;;;;36.30;22.60;;;8.00;99.50;;;;;;5013974;28;20044;-87
2022/03/23 01:23:33;;;;;;;36.00;23.30;;;8.00;99.60;;;;;;5030897;28;20048;-88
2022/03/23 01:25:59;;;;;;;31.63;22.00;;;8.00;99.50;;;;;;5031374;28;20040;-87
2022/03/23 01:28:25;;;;;;;31.98;21.70;;;8.00;99.50;;;;;;5031066;28;20423;-88
2022/03/23 01:30:50;;;;;;;36.42;22.77;;;7.90;99.40;;;;;;5030775;28;20410;-88
2022/03/23 01:33:16;;;;;;;33.05;21.40;;;7.90;99.70;;;;;;5014019;28;20049;-88
2022/03/23 01:35:42;;;;;;;32.80;22.90;;;7.80;99.70;;;;;;5030653;28;20056;-87
2022/03/23 01:38:07;;;;;;;33.03;22.80;;;7.80;99.70;;;;;;5030914;28;20048;-88
2022/03/23 01:40:33;;;;;;;29.90;21.02;;;7.70;99.90;;;;;;5013739;28;20046;-88
2022/03/23 01:42:59;;;;;;;29.90;20.33;;;7.70;99.90;;;;;;5030797;28;20060;-87
2022/03/23 01:45:24;;;;;;;33.05;20.60;;;7.70;99.90;;;;;;5030528;28;20128;-87
2022/03/23 01:47:50;;;;;;;32.65;22.20;;;7.70;99.90;;;;;;5030746;28;20037;-87
2022/03/23 01:50:15;;;;;;;33.42;23.77;;;7.60;99.90;;;;;;5029998;28;20507;-87
2022/03/23 01:52:41;;;;;;;31.13;22.05;;;7.60;99.90;;;;;;5030458;28;20050;-87
2022/03/23 01:55:13;;;;;;;34.78;23.08;;;7.60;99.90;;;;;;5030350;28;20045;-88
2022/03/23 01:57:42;;;;;;;30.23;20.83;;;7.60;99.90;;;;;;5013988;28;20417;-87
2022/03/23 02:00:08;;;;;;;33.13;23.05;;;7.60;99.90;;;;;;5029941;28;20064;-88
2022/03/23 02:02:34;;;;;;;32.50;23.02;;;7.60;99.90;;;;;;5030191;28;20037;-88
2022/03/23 02:05:01;;;;;;;31.73;21.50;;;7.60;99.90;;;;;;5030424;28;20124;-88
2022/03/23 02:07:26;;;;;;;34.47;21.67;;;7.60;99.90;;;;;;5030481;28;20056;-88
2022/03/23 02:09:52;;;;;;;34.65;23.23;;;7.60;99.90;;;;;;5030202;28;20037;-88
2022/03/23 02:12:18;;;;;;;31.45;22.38;;;7.60;99.90;;;;;;5030223;28;20546;-88
2022/03/23 02:14:46;;;;;;;35.50;22.90;;;7.50;99.90;;;;;;5013856;28;20045;-88
2022/03/23 02:17:12;;;;;;;34.40;22.63;;;7.50;99.90;;;;;;5030105;28;20495;-87
2022/03/23 02:19:37;;;;;;;38.47;23.45;;;7.50;99.90;;;;;;5030017;28;20090;-88
2022/03/23 02:22:04;;;;;;;35.33;22.25;;;7.50;99.90;;;;;;5013683;28;20033;-88
2022/03/23 02:24:31;;;;;;;30.58;21.17;;;7.40;99.90;;;;;;5014090;28;20549;-88
2022/03/23 02:26:57;;;;;;;31.80;22.42;;;7.40;99.90;;;;;;5030099;28;20038;-88
2022/03/23 02:29:25;;;;;;;32.78;22.10;;;7.40;99.90;;;;;;5029987;28;20045;-87
2022/03/23 02:31:51;;;;;;;34.60;23.55;;;7.40;99.90;;;;;;5032967;28;20033;-87
2022/03/23 02:34:17;;;;;;;32.92;22.90;;;7.40;99.90;;;;;;5034011;28;20499;-87
2022/03/23 02:36:43;;;;;;;35.45;23.00;;;7.30;99.90;;;;;;5017622;28;20064;-87
2022/03/23 02:39:08;;;;;;;37.22;23.67;;;7.30;99.90;;;;;;5033745;28;20045;-87
2022/03/23 02:41:34;;;;;;;37.47;22.75;;;7.30;99.90;;;;;;5033458;28;20041;-87
2022/03/23 02:44:00;;;;;;;36.38;22.92;;;7.30;99.90;;;;;;5033865;28;20037;-87
2022/03/23 02:46:28;;;;;;;35.47;23.73;;;7.20;99.90;;;;;;5033883;28;20042;-87
2022/03/23 02:48:54;;;;;;;36.15;23.83;;;7.30;99.90;;;;;;5034208;28;20037;-87
2022/03/23 02:51:20;;;;;;;37.00;24.35;;;7.20;99.90;;;;;;5016610;28;20453;-87
2022/03/23 03:02:16;;;;;;;34.92;24.05;;;7.30;99.90;;;;;;5033433;28;20045;-87
2022/03/23 03:04:42;;;;;;;37.57;24.13;;;7.30;99.90;;;;;;5033490;28;20052;-88
2022/03/23 03:07:08;;;;;;;34.78;26.55;;;7.20;99.90;;;;;;5033504;28;20042;-87
2022/03/23 03:09:33;;;;;;;39.10;26.25;;;7.20;99.90;;;;;;5033420;28;20041;-87
2022/03/23 03:12:01;;;;;;;36.53;24.92;;;7.20;99.90;;;;;;5033296;28;20445;-87
2022/03/23 03:14:27;;;;;;;38.90;25.85;;;7.20;99.90;;;;;;5033212;28;20056;-87
2022/03/23 03:16:53;;;;;;;38.30;25.90;;;7.20;99.90;;;;;;5033382;28;20041;-87
2022/03/23 03:19:19;;;;;;;34.58;25.40;;;7.20;99.90;;;;;;5033481;28;20041;-86
2022/03/23 03:21:45;;;;;;;40.38;24.92;;;7.10;99.90;;;;;;5032670;28;20048;-87
2022/03/23 03:24:11;;;;;;;36.72;24.77;;;7.10;99.90;;;;;;5033409;28;20037;-86
2022/03/23 03:26:37;;;;;;;31.52;20.63;;;7.10;99.90;;;;;;5033390;28;20630;-86
2022/03/23 03:29:04;;;;;;;32.13;20.67;;;7.00;99.90;;;;;;5032860;28;20490;-87
2022/03/23 03:31:30;;;;;;;29.13;20.88;;;6.90;99.90;;;;;;5032636;28;20566;-87
2022/03/23 03:33:57;;;;;;;28.67;19.90;;;6.80;99.90;;;;;;5033246;28;20403;-87
2022/03/23 03:36:23;;;;;;;32.72;19.90;;;6.70;99.90;;;;;;5032956;28;20051;-87
2022/03/23 03:38:48;;;;;;;33.05;21.73;;;6.70;99.90;;;;;;5032943;28;20041;-87
2022/03/23 03:41:14;;;;;;;31.20;21.38;;;6.60;99.90;;;;;;5015791;28;20041;-87
2022/03/23 03:43:40;;;;;;;32.42;21.98;;;6.60;99.90;;;;;;5031784;28;20033;-87
2022/03/23 03:46:06;;;;;;;36.35;23.10;;;6.60;99.90;;;;;;5033081;28;20676;-87
2022/03/23 03:48:32;;;;;;;40.38;23.27;;;6.60;99.90;;;;;;5016401;28;20638;-87
2022/03/23 03:50:58;;;;;;;35.17;23.13;;;6.50;99.90;;;;;;5032113;28;20042;-87
2022/03/23 03:53:23;;;;;;;37.13;23.70;;;6.50;99.90;;;;;;5016163;28;20037;-87
2022/03/23 03:55:49;;;;;;;36.35;22.60;;;6.50;99.90;;;;;;5032661;28;20033;-87
2022/03/23 03:58:17;;;;;;;37.75;23.80;;;6.50;99.90;;;;;;5015760;28;20072;-87
2022/03/23 04:00:43;;;;;;;33.88;23.63;;;6.50;99.90;;;;;;5032159;28;20037;-87
2022/03/23 04:03:08;;;;;;;40.55;24.35;;;6.50;99.90;;;;;;5032425;28;20418;-87
2022/03/23 04:05:34;;;;;;;41.70;25.23;;;6.50;99.90;;;;;;5032337;28;20083;-87
2022/03/23 04:08:00;;;;;;;37.20;22.92;;;6.50;99.90;;;;;;5032305;28;20076;-87
2022/03/23 04:10:26;;;;;;;37.20;24.08;;;6.50;99.90;;;;;;5031906;28;20049;-87
2022/03/23 04:12:53;;;;;;;34.83;23.40;;;6.50;99.90;;;;;;5032262;28;20095;-87
2022/03/23 04:15:22;;;;;;;41.67;24.88;;;6.50;99.90;;;;;;5015750;28;20056;-87
2022/03/23 04:17:48;;;;;;;37.33;24.92;;;6.50;99.90;;;;;;5032451;28;20033;-87
2022/03/23 04:20:14;;;;;;;38.92;24.10;;;6.50;99.90;;;;;;5031772;28;20059;-87
2022/03/23 04:22:40;;;;;;;33.47;22.08;;;6.50;99.90;;;;;;5032057;28;20029;-87
2022/03/23 04:25:08;;;;;;;34.35;21.98;;;6.30;99.90;;;;;;5015373;28;20083;-87
2022/03/23 04:27:34;;;;;;;32.03;22.38;;;6.30;99.90;;;;;;5031713;28;20063;-87
2022/03/23 04:30:00;;;;;;;34.58;22.08;;;6.30;99.90;;;;;;5031554;28;20094;-87
2022/03/23 04:32:26;;;;;;;34.78;21.88;;;6.30;99.90;;;;;;5031911;28;20522;-87
2022/03/23 04:34:51;;;;;;;34.90;22.90;;;6.20;99.90;;;;;;5031717;28;20038;-87
2022/03/23 04:37:17;;;;;;;33.70;21.73;;;6.20;99.90;;;;;;5015290;28;20142;-87
2022/03/23 04:39:43;;;;;;;34.63;22.48;;;6.20;99.90;;;;;;5031281;28;20052;-87
2022/03/23 04:42:08;;;;;;;37.00;25.05;;;6.10;99.90;;;;;;5015119;28;20041;-88
2022/03/23 04:44:34;;;;;;;37.38;23.92;;;6.10;99.90;;;;;;5031949;28;20072;-87
2022/03/23 04:46:59;;;;;;;37.03;24.20;;;6.10;99.90;;;;;;5031860;28;20491;-87
2022/03/23 04:49:25;;;;;;;38.65;24.65;;;6.10;99.90;;;;;;5031266;28;20410;-87
2022/03/23 04:51:51;;;;;;;36.90;23.67;;;6.10;99.90;;;;;;5031265;28;20041;-87
2022/03/23 04:54:17;;;;;;;41.28;25.25;;;6.20;99.90;;;;;;5031179;28;20045;-87
2022/03/23 04:56:42;;;;;;;42.17;25.55;;;6.20;99.90;;;;;;5015280;28;20402;-87
2022/03/23 04:59:09;;;;;;;40.35;25.35;;;6.20;99.90;;;;;;5031398;28;20041;-88
2022/03/23 05:01:34;;;;;;;41.60;28.13;;;6.20;99.90;;;;;;5014418;28;20077;-87
2022/03/23 05:04:00;;;;;;;37.65;25.67;;;6.20;99.90;;;;;;5031457;28;20080;-87
2022/03/23 05:06:26;;;;;;;39.75;26.45;;;6.20;99.90;;;;;;5031308;28;20602;-87
2022/03/23 05:08:51;;;;;;;40.08;26.15;;;6.20;99.90;;;;;;5031189;28;20092;-87
2022/03/23 05:11:17;;;;;;;37.97;25.55;;;6.20;99.90;;;;;;5030858;28;20132;-87
2022/03/23 05:13:42;;;;;;;39.15;26.50;;;6.20;99.90;;;;;;5032418;28;20052;-87
2022/03/23 05:16:08;;;;;;;38.28;25.55;;;6.20;99.90;;;;;;5031235;28;20045;-87
2022/03/23 05:18:33;;;;;;;37.47;24.23;;;6.10;99.90;;;;;;5031029;28;20076;-87
2022/03/23 05:20:59;;;;;;;42.22;25.23;;;6.10;99.90;;;;;;5037208;28;20120;-87
2022/03/23 05:23:24;;;;;;;36.15;23.90;;;6.10;99.90;;;;;;5040217;28;20032;-87
2022/03/23 05:25:50;;;;;;;36.00;23.98;;;6.00;99.90;;;;;;5069415;28;20029;-87
2022/03/23 05:28:15;;;;;;;41.70;24.67;;;6.00;99.90;;;;;;5068553;28;20032;-87
2022/03/23 05:30:41;;;;;;;39.75;23.70;;;6.00;99.90;;;;;;5057617;28;20041;-87
2022/03/23 05:33:07;;;;;;;38.63;24.88;;;5.90;99.90;;;;;;5031101;28;20074;-88
2022/03/23 05:35:32;;;;;;;39.88;24.40;;;5.90;99.90;;;;;;5031217;28;20431;-87
2022/03/23 05:37:58;;;;;;;34.75;23.63;;;5.90;99.90;;;;;;5031368;28;20406;-87
2022/03/23 05:40:24;;;;;;;39.00;24.88;;;5.90;99.90;;;;;;5013909;28;20037;-87
2022/03/23 05:42:50;;;;;;;36.22;24.60;;;5.80;99.90;;;;;;5030451;28;20034;-87
2022/03/23 05:45:16;;;;;;;36.20;24.10;;;5.80;99.90;;;;;;5030684;28;20403;-87
2022/03/23 05:47:42;;;;;;;36.35;23.42;;;5.80;99.90;;;;;;5030595;28;20037;-87
2022/03/23 05:50:09;;;;;;;33.63;22.70;;;5.80;99.90;;;;;;5013872;28;20045;-87
2022/03/23 05:52:36;;;;;;;37.42;23.10;;;5.70;99.90;;;;;;5030696;28;20038;-87
2022/03/23 05:55:03;;;;;;;31.15;22.17;;;5.70;99.90;;;;;;5031702;28;20045;-88
2022/03/23 05:57:29;;;;;;;34.40;22.15;;;5.70;99.90;;;;;;5013428;28;20128;-87
2022/03/23 05:59:55;;;;;;;33.55;22.45;;;5.60;99.90;;;;;;5013742;28;20149;-88
2022/03/23 06:02:20;;;;;;;43.58;25.10;;;5.60;99.90;;;;;;5014182;28;20407;-87
2022/03/23 06:04:46;;;;;;;37.20;22.92;;;5.60;99.90;;;;;;5030056;28;20084;-87
2022/03/23 06:07:12;;;;;;;34.78;21.63;;;5.70;99.90;;;;;;5030041;28;20514;-87
2022/03/23 06:09:38;;;;;;;30.23;21.08;;;5.70;99.90;;;;;;5030069;28;20595;-87
2022/03/23 06:12:04;;;;;;;32.20;21.08;;;5.70;99.90;;;;;;5030374;28;20041;-87
2022/03/23 06:14:31;;;;;;;36.58;23.05;;;5.70;99.90;;;;;;5014068;28;20626;-87
2022/03/23 06:16:57;;;;;;;36.20;22.38;;;5.70;99.90;;;;;;5013685;28;20415;-87
2022/03/23 06:19:23;;;;;;;39.75;21.90;;;5.80;99.90;;;;;;5030170;28;20038;-87
2022/03/23 06:21:48;;;;;;;35.55;22.05;;;5.80;99.90;;;;;;5029836;28;20048;-87
2022/03/23 06:24:14;;;;;;;36.53;22.25;;;5.90;99.90;;;;;;5030416;28;20038;-87
2022/03/23 06:26:39;;;;;;;36.85;22.40;;;5.90;99.90;;;;;;5030160;28;20039;-87
2022/03/23 06:29:05;;;;;;;38.42;21.65;;;5.90;99.90;;;;;;5013543;28;20038;-88
2022/03/23 06:31:30;;;;;;;29.55;19.90;;;6.00;99.90;;;;;;5029858;28;20037;-87
2022/03/23 06:33:56;;;;;;;32.30;20.58;;;6.00;99.90;;;;;;5030054;28;20084;-87
2022/03/23 06:36:22;;;;;;;36.63;23.33;;;6.00;99.90;;;;;;5030099;28;20049;-88
2022/03/23 06:38:49;;;;;;;37.22;22.40;;;6.00;99.90;;;;;;5030283;28;20034;-88
2022/03/23 06:41:15;;;;;;;34.20;20.42;;;6.00;99.90;;;;;;5029578;28;20052;-87
2022/03/23 06:43:41;;;;;;;34.50;19.38;;;6.00;99.90;;;;;;5030166;28;20042;-87
2022/03/23 06:46:07;;;;;;;32.30;21.35;;;6.10;99.90;;;;;;5029900;28;20042;-87
2022/03/23 06:48:32;;;;;;;31.25;18.80;;;6.10;99.90;;;;;;5029889;28;20088;-87
2022/03/23 06:50:58;;;;;;;35.35;20.48;;;6.10;99.90;;;;;;5029396;28;20041;-87
2022/03/23 06:53:24;;;;;;;30.40;19.70;;;6.10;99.90;;;;;;5013510;28;20045;-88
2022/03/23 06:55:49;;;;;;;30.48;19.33;;;6.20;99.90;;;;;;5029878;28;20039;-87
2022/03/23 06:58:15;;;;;;;28.77;18.30;;;6.20;99.90;;;;;;5029677;28;20038;-87
2022/03/23 07:00:40;;;;;;;27.85;18.50;;;6.20;99.90;;;;;;5029460;28;20600;-88
2022/03/23 07:03:06;;;;;;;28.40;18.48;;;6.30;99.90;;;;;;5013234;28;20041;-88
2022/03/23 07:05:34;;;;;;;33.55;19.67;;;6.30;99.90;;;;;;5013414;28;20065;-87
2022/03/23 07:10:44;;;;;;;32.00;18.85;;;6.50;99.90;;;;;;5029600;28;20064;-86
2022/03/23 07:13:09;;;;;;;29.73;19.85;;;6.60;99.90;;;;;;5029933;28;20502;-87
2022/03/23 07:15:35;;;;;;;33.58;22.65;;;6.60;99.90;;;;;;5030312;28;20410;-87
2022/03/23 07:18:01;;;;;;;34.60;22.98;;;6.70;99.90;;;;;;5032521;28;20529;-87
2022/03/23 07:20:27;;;;;;;34.20;23.05;;;6.90;99.90;;;;;;5016287;28;20045;-88
2022/03/23 07:22:53;;;;;;;35.80;26.38;;;7.00;99.90;;;;;;5031503;28;20041;-88
2022/03/23 07:25:18;;;;;;;35.47;24.75;;;7.20;99.90;;;;;;5032333;28;20497;-87
2022/03/23 07:27:44;;;;;;;34.55;25.30;;;7.30;99.90;;;;;;5033781;28;20045;-88
2022/03/23 07:30:11;;;;;;;36.30;24.90;;;7.50;99.90;;;;;;5032364;28;20111;-87
2022/03/23 07:32:38;;;;;;;38.92;25.83;;;7.60;99.90;;;;;;5032392;28;20495;-88
2022/03/23 07:35:04;;;;;;;34.25;25.10;;;7.70;99.90;;;;;;5015822;28;20392;-88
2022/03/23 07:37:31;;;;;;;35.00;25.60;;;7.90;99.90;;;;;;5015737;28;20041;-87
2022/03/23 07:39:56;;;;;;;36.30;26.27;;;8.00;99.90;;;;;;5032091;28;20140;-88
2022/03/23 07:42:22;;;;;;;34.33;24.52;;;8.20;99.90;;;;;;5032351;28;20120;-88
2022/03/23 07:44:47;;;;;;;36.65;24.92;;;8.40;99.90;;;;;;5032185;28;20116;-88
2022/03/23 07:47:15;;;;;;;39.47;25.70;;;8.50;99.90;;;;;;5015610;28;20034;-88
2022/03/23 07:49:41;;;;;;;32.28;23.45;;;8.70;99.90;;;;;;5031819;28;20120;-87
2022/03/23 07:52:08;;;;;;;34.33;25.10;;;8.90;99.90;;;;;;5015586;28;20498;-88
2022/03/23 07:54:34;;;;;;;33.42;22.63;;;9.10;99.90;;;;;;5031928;28;20414;-88
2022/03/23 07:57:00;;;;;;;29.90;22.40;;;9.30;99.80;;;;;;5032189;28;20049;-87
2022/03/23 07:59:27;;;;;;;31.38;23.05;;;9.40;98.90;;;;;;5031983;28;20033;-87
2022/03/23 08:01:52;;;;;;;28.20;22.27;;;9.50;98.20;;;;;;5031070;28;20077;-87
2022/03/23 08:04:18;;;;;;;28.17;21.30;;;9.70;97.50;;;;;;5030747;28;20097;-88
2022/03/23 08:06:43;;;;;;;28.20;22.52;;;9.80;96.70;;;;;;5031989;28;20037;-87
2022/03/23 08:09:09;;;;;;;30.52;21.65;;;10.00;96.00;;;;;;5031875;28;20410;-88
2022/03/23 08:11:35;;;;;;;32.17;22.40;;;10.10;95.00;;;;;;5030424;28;20049;-87
2022/03/23 08:14:01;;;;;;;27.85;22.35;;;10.30;93.80;;;;;;5031472;28;20098;-88
2022/03/23 08:16:27;;;;;;;31.20;21.83;;;10.40;93.50;;;;;;5031850;28;20057;-88
2022/03/23 08:18:53;;;;;;;28.02;22.60;;;10.60;93.40;;;;;;5031693;28;20041;-87
2022/03/23 08:21:21;;;;;;;31.30;23.42;;;10.70;92.80;;;;;;5031417;28;20812;-88
2022/03/23 08:23:47;;;;;;;28.35;21.30;;;10.80;92.40;;;;;;5014990;28;20037;-88
2022/03/23 08:26:14;;;;;;;27.08;22.60;;;11.00;92.40;;;;;;5032383;28;20152;-88
2022/03/23 08:28:41;;;;;;;28.65;22.45;;;11.10;91.90;;;;;;5031340;28;20038;-88
2022/03/23 08:31:07;;;;;;;29.63;22.83;;;11.30;90.70;;;;;;5031347;28;20041;-88
2022/03/23 08:33:34;;;;;;;29.13;22.73;;;11.40;90.70;;;;;;5031728;28;20045;-88
2022/03/23 08:36:01;;;;;;;27.17;21.73;;;11.60;90.50;;;;;;5030886;28;20418;-88
2022/03/23 08:38:27;;;;;;;29.08;22.33;;;11.70;90.40;;;;;;5031668;28;20060;-88
2022/03/23 08:40:53;;;;;;;26.02;22.15;;;11.90;89.50;;;;;;5031077;28;20454;-88
2022/03/23 08:43:20;;;;;;;27.92;21.67;;;12.00;89.40;;;;;;5015175;28;20060;-88
2022/03/23 08:45:46;;;;;;;27.30;22.08;;;12.20;85.30;;;;;;5031834;28;20049;-88
2022/03/23 08:48:12;;;;;;;23.17;19.95;;;12.30;83.80;;;;;;5031456;28;20033;-88
2022/03/23 08:50:40;;;;;;;23.48;19.77;;;12.50;80.00;;;;;;5012676;28;20045;-88
2022/03/23 08:53:06;;;;;;;30.20;21.00;;;12.70;78.10;;;;;;5014174;28;20046;-88
2022/03/23 08:55:33;;;;;;;24.60;20.98;;;12.80;74.60;;;;;;5015052;28;20045;-88
2022/03/23 08:57:59;;;;;;;25.77;19.35;;;12.90;73.20;;;;;;5031803;28;20041;-88
2022/03/23 09:00:24;;;;;;;24.33;19.20;;;13.00;71.90;;;;;;5014682;28;20383;-88
2022/03/23 09:02:51;;;;;;;23.42;19.15;;;13.20;71.20;;;;;;5031283;28;20049;-88
2022/03/23 09:05:18;;;;;;;21.83;19.30;;;13.40;67.80;;;;;;5031318;28;20060;-88
2022/03/23 09:07:43;;;;;;;22.83;18.58;;;13.50;66.10;;;;;;5032715;28;20080;-88
2022/03/23 09:10:15;;;;;;;22.83;20.08;;;13.60;64.90;;;;;;5030900;28;20069;-89
2022/03/23 09:12:42;;;;;;;19.67;16.77;;;13.80;65.30;;;;;;5031417;28;20087;-89
2022/03/23 09:15:10;;;;;;;20.35;16.90;;;14.00;63.70;;;;;;5030949;28;20111;-89
2022/03/23 09:17:36;;;;;;;22.40;16.80;;;14.10;62.40;;;;;;5031040;28;20037;-89
2022/03/23 09:20:04;;;;;;;21.13;17.08;;;14.20;61.00;;;;;;5014096;28;20124;-89
2022/03/23 09:22:34;;;;;;;20.77;16.95;;;14.40;58.50;;;;;;5031011;28;20063;-89
2022/03/23 09:25:05;;;;;;;20.48;16.73;;;14.50;58.50;;;;;;5030924;28;20051;-89
2022/03/23 09:27:36;;;;;;;20.58;17.15;;;14.70;57.60;;;;;;5031319;28;20042;-89
2022/03/23 09:30:04;;;;;;;19.35;16.95;;;14.80;56.60;;;;;;5030502;28;20042;-89
2022/03/23 09:32:30;;;;;;;19.30;16.73;;;15.00;56.10;;;;;;5030874;28;20044;-89
2022/03/23 09:34:55;;;;;;;18.88;16.63;;;15.10;55.40;;;;;;5030766;28;20042;-89
2022/03/23 09:40:06;;;;;;;20.50;17.08;;;15.40;53.90;;;;;;5029358;28;20407;-88
2022/03/23 09:42:32;;;;;;;20.02;17.10;;;15.60;53.80;;;;;;5030841;28;20048;-88
2022/03/23 09:44:58;;;;;;;21.05;17.02;;;15.70;52.80;;;;;;5030528;28;20045;-89
2022/03/23 09:47:24;;;;;;;16.83;15.02;;;15.80;51.30;;;;;;5030761;28;20033;-88
2022/03/23 09:49:50;;;;;;;19.48;15.75;;;15.90;49.50;;;;;;5030320;28;20172;-88
2022/03/23 09:52:16;;;;;;;21.48;15.77;;;16.10;49.30;;;;;;5030423;28;20029;-88
2022/03/23 09:54:45;;;;;;;18.27;16.17;;;16.20;49.50;;;;;;5014038;28;20065;-88
2022/03/23 09:57:14;;;;;;;17.88;15.68;;;16.40;49.40;;;;;;5030581;28;20112;-88
2022/03/23 09:59:41;;;;;;;21.88;16.73;;;16.50;48.00;;;;;;5030136;28;20038;-88
2022/03/23 10:02:48;;;;;;;18.13;16.15;;;16.60;46.70;;;;;;5030481;28;20084;-88
2022/03/23 10:05:25;;;;;;;19.52;15.93;;;16.70;45.70;;;;;;5030303;28;20172;-88
2022/03/23 10:08:02;;;;;;;17.83;15.90;;;16.80;45.80;;;;;;5030400;28;20037;-88
2022/03/23 10:11:04;;;;;;;17.98;15.40;;;16.90;46.00;;;;;;5013594;28;20130;-88
2022/03/23 10:13:54;;;;;;;18.25;15.50;;;17.10;46.30;;;;;;5030643;28;20087;-88
2022/03/23 10:16:57;;;;;;;17.20;15.40;;;17.30;45.30;;;;;;5030642;28;20048;-89
2022/03/23 10:19:23;;;;;;;16.48;14.65;;;17.40;45.00;;;;;;5030416;28;20052;-89
2022/03/23 10:21:49;;;;;;;18.05;16.15;;;17.50;44.40;;;;;;5031257;28;20038;-89
2022/03/23 10:24:15;;;;;;;17.67;14.30;;;17.60;44.40;;;;;;5030555;28;20538;-89
2022/03/23 10:26:42;;;;;;;18.30;15.85;;;17.70;43.50;;;;;;5013689;28;20041;-88
2022/03/23 10:29:22;;;;;;;17.40;15.55;;;17.80;42.60;;;;;;5030264;28;20048;-89
2022/03/23 10:32:09;;;;;;;17.40;14.40;;;18.00;43.30;;;;;;5029929;28;20041;-89
2022/03/23 10:34:54;;;;;;;17.20;14.98;;;18.10;43.00;;;;;;5030067;28;20592;-88
2022/03/23 10:37:34;;;;;;;18.35;15.57;;;18.20;42.40;;;;;;5030386;28;20044;-89
2022/03/23 10:40:07;;;;;;;17.13;15.32;;;18.30;42.90;;;;;;5029673;28;20045;-89
2022/03/23 10:42:33;;;;;;;;;;;18.50;42.60;;;;;;5030626;28;20098;-88
2022/03/23 10:45:19;;;;;;;17.33;15.48;;;18.50;42.40;;;;;;5029935;28;19921;-89
2022/03/23 10:47:46;;;;;;;17.15;14.95;;;18.60;42.20;;;;;;5043950;28;20167;-87
2022/03/23 10:50:19;;;;;;;18.45;15.73;;;18.70;42.30;;;;;;5048073;28;20053;-87
2022/03/23 10:52:49;;;;;;;17.67;15.73;;;18.90;43.60;;;;;;5046413;28;20470;-87
2022/03/23 10:55:16;;;;;;;18.42;15.43;;;19.00;42.40;;;;;;5037699;28;20136;-88
2022/03/23 10:58:16;;;;;;;17.60;14.50;;;19.20;41.00;;;;;;5016982;28;20498;-87
2022/03/23 11:00:42;;;;;;;16.63;14.82;;;19.40;40.40;;;;;;5025111;28;20096;-88
2022/03/23 11:03:09;;;;;;;19.95;13.95;;;19.50;39.60;;;;;;5033578;28;20042;-88
2022/03/23 11:05:44;;;;;;;16.02;14.15;;;19.60;40.10;;;;;;5017014;28;20037;-88
2022/03/23 11:08:24;;;;;;;15.77;13.98;;;19.70;39.10;;;;;;5033512;28;20041;-88
2022/03/23 11:16:39;;;;;;;16.35;14.48;;;20.00;38.30;;;;;;5033372;28;20080;-87
2022/03/23 11:19:10;;;;;;;16.33;13.45;;;20.10;39.60;;;;;;5033598;28;20034;-87
2022/03/23 11:22:05;;;;;;;20.15;14.27;;;20.20;39.20;;;;;;5032719;28;20046;-87
2022/03/23 11:24:37;;;;;;;20.60;14.25;;;20.40;40.00;;;;;;5033175;28;20048;-87
2022/03/23 11:27:08;;;;;;;17.35;14.40;;;20.60;40.30;;;;;;5032721;28;20033;-89
2022/03/23 11:29:35;;;;;;;18.38;14.35;;;20.80;38.70;;;;;;5016593;28;20537;-87
2022/03/23 11:32:11;;;;;;;18.63;14.07;;;20.90;39.10;;;;;;5033354;28;20041;-89
2022/03/23 11:34:39;;;;;;;18.80;13.55;;;21.10;38.80;;;;;;5033107;28;20049;-89
2022/03/23 11:37:07;;;;;;;19.50;14.20;;;21.30;37.60;;;;;;5032549;28;20041;-89
2022/03/23 11:39:34;;;;;;;16.98;13.43;;;21.40;37.30;;;;;;5032494;28;20452;-89
2022/03/23 11:42:03;;;;;;;20.63;13.25;;;21.50;38.10;;;;;;5032706;28;20084;-89
2022/03/23 11:44:28;;;;;;;18.45;13.90;;;21.70;38.20;;;;;;5032838;28;20048;-89
2022/03/23 11:47:00;;;;;;;20.23;14.98;;;21.80;37.40;;;;;;5032865;28;20470;-89
2022/03/23 11:49:44;;;;;;;17.40;13.65;;;22.00;36.70;;;;;;5032394;28;20556;-89
2022/03/23 11:52:37;;;;;;;16.65;12.13;;;22.20;36.70;;;;;;5032518;28;20049;-89
2022/03/23 11:55:42;;;;;;;17.30;12.57;;;22.40;35.30;;;;;;5032693;28;20082;-89
2022/03/23 11:58:18;;;;;;;15.85;11.30;;;22.40;35.90;;;;;;5032470;28;20060;-90
2022/03/23 12:00:55;;;;;;;18.85;11.00;;;22.50;36.30;;;;;;5032110;28;20124;-89
2022/03/23 12:03:40;;;;;;;17.50;10.40;;;22.60;34.90;;;;;;5014695;28;20033;-89
2022/03/23 12:06:09;;;;;;;16.98;9.75;;;22.70;33.50;;;;;;5032354;28;20491;-89
2022/03/23 12:08:50;;;;;;;17.88;10.10;;;22.80;34.50;;;;;;5032564;28;20092;-89
2022/03/23 12:11:30;;;;;;;17.55;10.55;;;22.90;33.00;;;;;;5032035;28;20077;-89
2022/03/23 12:14:00;;;;;;;15.38;9.38;;;23.10;33.40;;;;;;5031730;28;20152;-89
2022/03/23 12:16:51;;;;;;;20.92;11.13;;;23.30;32.90;;;;;;5015566;28;20045;-89
2022/03/23 12:19:18;;;;;;;18.00;9.57;;;23.40;31.40;;;;;;5032123;28;20042;-89
2022/03/23 12:21:58;;;;;;;16.08;9.82;;;23.40;31.60;;;;;;5031671;28;20533;-89
2022/03/23 12:24:46;;;;;;;17.08;9.90;;;23.60;31.60;;;;;;5032116;28;20033;-89
2022/03/23 12:27:24;;;;;;;14.90;9.48;;;23.70;31.70;;;;;;5033080;28;20068;-89
2022/03/23 12:29:51;;;;;;;16.33;9.98;;;23.90;31.60;;;;;;5031452;28;20034;-89
2022/03/23 12:32:17;;;;;;;17.38;11.48;;;24.00;31.00;;;;;;5031561;28;20498;-89
2022/03/23 12:34:44;;;;;;;16.67;10.57;;;24.10;31.00;;;;;;5031715;28;20087;-89
2022/03/23 12:37:16;;;;;;;17.13;11.20;;;24.30;30.40;;;;;;5031651;28;20068;-89
2022/03/23 12:39:51;;;;;;;18.70;9.32;;;24.40;31.30;;;;;;5014763;28;20070;-89
2022/03/23 12:42:20;;;;;;;16.85;9.00;;;24.50;31.40;;;;;;5031647;28;20041;-90
2022/03/23 12:45:03;;;;;;;17.17;8.60;;;24.60;31.40;;;;;;5031587;28;20164;-90
2022/03/23 12:47:30;;;;;;;;;;;24.70;31.50;;;;;;5032154;28;20053;-89
2022/03/23 12:58:24;;;;;;;22.58;9.23;;;25.30;30.00;;;;;;5031233;28;20124;-90
2022/03/23 13:00:53;;;;;;;17.50;8.30;;;25.50;29.50;;;;;;5030870;28;20502;-91
2022/03/23 13:03:22;;;;;;;19.80;7.97;;;25.60;29.40;;;;;;5030975;28;20047;-90
2022/03/23 13:06:00;;;;;;;16.55;9.05;;;25.70;29.00;;;;;;5031517;28;20511;-91